createdAt,value
2023-03-15T00:00:40.806Z,0.00
2023-03-15T00:01:40.840Z,0.00
2023-03-15T00:02:40.867Z,0.00
2023-03-15T00:03:40.921Z,0.00
2023-03-15T00:04:40.880Z,0.00
2023-03-15T00:05:40.895Z,0.00
2023-03-15T00:06:40.943Z,0.00
2023-03-15T00:07:40.926Z,0.00
2023-03-15T00:08:40.950Z,0.00
2023-03-15T00:09:40.978Z,0.00
2023-03-15T00:10:40.976Z,0.00
2023-03-15T00:11:40.991Z,0.00
2023-03-15T00:12:41.016Z,0.00
2023-03-15T00:13:41.029Z,0.00
2023-03-15T00:14:41.051Z,0.00
2023-03-15T00:15:41.104Z,0.00
2023-03-15T00:16:41.080Z,0.00
2023-03-15T00:17:41.096Z,0.00
2023-03-15T00:18:41.118Z,0.00
2023-03-15T00:19:41.193Z,0.00
2023-03-15T00:20:41.149Z,0.00
2023-03-15T00:21:41.171Z,0.00
2023-03-15T00:22:41.182Z,0.00
2023-03-15T00:23:41.203Z,0.00
2023-03-15T00:24:41.221Z,0.00
2023-03-15T00:25:41.234Z,0.00
2023-03-15T00:26:41.262Z,0.00
2023-03-15T00:27:41.271Z,0.00
2023-03-15T00:28:41.294Z,0.00
2023-03-15T00:29:41.307Z,0.00
2023-03-15T00:30:41.327Z,0.00
2023-03-15T00:31:41.350Z,0.00
2023-03-15T00:32:41.398Z,0.00
2023-03-15T00:33:41.382Z,0.00
2023-03-15T00:34:41.400Z,0.00
2023-03-15T00:35:41.461Z,0.00
2023-03-15T00:36:41.434Z,0.00
2023-03-15T00:37:41.458Z,0.00
2023-03-15T00:38:41.471Z,0.00
2023-03-15T00:39:41.494Z,0.00
2023-03-15T00:40:41.524Z,0.00
2023-03-15T00:41:41.531Z,0.00
2023-03-15T00:42:41.551Z,0.00
2023-03-15T00:43:41.566Z,0.00
2023-03-15T00:44:41.576Z,0.00
2023-03-15T00:45:41.596Z,0.00
2023-03-15T00:46:41.674Z,0.00
2023-03-15T00:47:41.637Z,0.00
2023-03-15T00:48:41.653Z,0.00
2023-03-15T00:49:41.672Z,0.00
2023-03-15T00:50:41.686Z,0.00
2023-03-15T00:51:41.704Z,0.00
2023-03-15T00:52:41.720Z,0.00
2023-03-15T00:53:41.744Z,0.00
2023-03-15T00:54:41.778Z,0.00
2023-03-15T00:55:41.773Z,0.00
2023-03-15T00:56:41.793Z,0.00
2023-03-15T00:57:41.810Z,0.00
2023-03-15T00:58:41.839Z,0.00
2023-03-15T00:59:41.844Z,0.00
2023-03-15T01:00:41.864Z,0.00
2023-03-15T01:01:41.914Z,0.00
2023-03-15T01:02:41.968Z,0.00
2023-03-15T01:03:41.933Z,0.00
2023-03-15T01:04:41.935Z,0.00
2023-03-15T01:05:41.948Z,0.00
2023-03-15T01:06:41.988Z,0.00
2023-03-15T01:07:41.996Z,0.00
2023-03-15T01:08:42.007Z,0.00
2023-03-15T01:09:42.068Z,0.00
2023-03-15T01:10:42.050Z,0.00
2023-03-15T01:11:42.073Z,0.00
2023-03-15T01:12:42.081Z,0.00
2023-03-15T01:13:42.103Z,0.00
2023-03-15T01:14:42.116Z,0.00
2023-03-15T01:15:42.159Z,0.00
2023-03-15T01:16:42.152Z,0.00
2023-03-15T01:17:42.189Z,0.00
2023-03-15T01:18:42.188Z,0.00
2023-03-15T01:19:42.202Z,0.00
2023-03-15T01:20:42.237Z,0.00
2023-03-15T01:21:42.240Z,0.00
2023-03-15T01:22:42.258Z,0.00
2023-03-15T01:23:42.282Z,0.00
2023-03-15T01:24:42.295Z,0.00
2023-03-15T01:25:42.320Z,0.00
2023-03-15T01:26:42.331Z,0.00
2023-03-15T01:27:42.347Z,0.00
2023-03-15T01:28:42.369Z,0.00
2023-03-15T01:29:42.385Z,0.00
2023-03-15T01:30:42.404Z,0.00
2023-03-15T01:31:42.468Z,0.00
2023-03-15T01:32:42.551Z,0.00
2023-03-15T01:33:42.459Z,0.00
2023-03-15T01:34:42.477Z,0.00
2023-03-15T01:35:42.541Z,0.00
2023-03-15T01:36:42.510Z,0.00
2023-03-15T01:37:42.533Z,0.00
2023-03-15T01:38:42.545Z,0.00
2023-03-15T01:39:42.608Z,0.00
2023-03-15T01:40:42.585Z,0.00
2023-03-15T01:41:42.598Z,0.00
2023-03-15T01:42:42.613Z,0.00
2023-03-15T01:43:42.633Z,0.00
2023-03-15T01:44:42.649Z,0.00
2023-03-15T01:45:42.668Z,0.00
2023-03-15T01:46:42.715Z,0.00
2023-03-15T01:47:42.702Z,0.00
2023-03-15T01:48:42.720Z,0.00
2023-03-15T01:49:42.738Z,0.00
2023-03-15T01:50:42.756Z,0.00
2023-03-15T01:51:42.772Z,0.00
2023-03-15T01:52:42.796Z,0.00
2023-03-15T01:53:42.809Z,0.00
2023-03-15T01:54:42.832Z,0.00
2023-03-15T01:55:42.844Z,0.00
2023-03-15T01:56:42.865Z,0.00
2023-03-15T01:57:42.877Z,0.00
2023-03-15T01:58:42.905Z,0.00
2023-03-15T01:59:42.914Z,0.00
2023-03-15T02:00:42.955Z,0.00
2023-03-15T02:01:42.955Z,0.00
2023-03-15T02:02:42.969Z,0.00
2023-03-15T02:03:42.993Z,0.00
2023-03-15T02:04:43.005Z,0.00
2023-03-15T02:05:43.018Z,0.00
2023-03-15T02:06:43.055Z,0.00
2023-03-15T02:07:43.049Z,0.00
2023-03-15T02:08:43.072Z,0.00
2023-03-15T02:09:43.100Z,0.00
2023-03-15T02:10:43.107Z,0.00
2023-03-15T02:11:43.170Z,0.00
2023-03-15T02:12:43.147Z,0.00
2023-03-15T02:13:43.159Z,0.00
2023-03-15T02:14:43.179Z,0.00
2023-03-15T02:15:43.210Z,0.00
2023-03-15T02:16:43.332Z,0.00
2023-03-15T02:17:43.229Z,0.00
2023-03-15T02:18:43.264Z,0.00
2023-03-15T02:19:43.286Z,0.00
2023-03-15T02:20:43.289Z,0.00
2023-03-15T02:21:43.310Z,0.00
2023-03-15T02:22:43.323Z,0.00
2023-03-15T02:23:43.337Z,0.00
2023-03-15T02:24:43.354Z,0.00
2023-03-15T02:25:43.371Z,0.00
2023-03-15T02:26:43.388Z,0.00
2023-03-15T02:27:43.406Z,0.00
2023-03-15T02:28:43.420Z,0.00
2023-03-15T02:29:43.442Z,0.00
2023-03-15T02:30:43.467Z,0.00
2023-03-15T02:31:43.547Z,0.00
2023-03-15T02:32:43.530Z,0.00
2023-03-15T02:33:43.512Z,0.00
2023-03-15T02:34:43.537Z,0.00
2023-03-15T02:35:43.598Z,0.00
2023-03-15T02:36:43.570Z,0.00
2023-03-15T02:37:43.581Z,0.00
2023-03-15T02:38:43.605Z,0.00
2023-03-15T02:39:43.615Z,0.00
2023-03-15T02:40:43.639Z,0.00
2023-03-15T02:41:43.650Z,0.00
2023-03-15T02:42:43.669Z,0.00
2023-03-15T02:43:43.689Z,0.00
2023-03-15T02:44:43.716Z,0.00
2023-03-15T02:45:43.789Z,0.00
2023-03-15T02:46:43.739Z,0.00
2023-03-15T02:47:43.754Z,0.00
2023-03-15T02:48:43.775Z,0.00
2023-03-15T02:49:43.818Z,0.00
2023-03-15T02:50:43.813Z,0.00
2023-03-15T02:51:43.829Z,0.00
2023-03-15T02:52:43.848Z,0.00
2023-03-15T02:53:43.864Z,0.00
2023-03-15T02:54:43.936Z,0.00
2023-03-15T02:55:43.911Z,0.00
2023-03-15T02:56:43.925Z,0.00
2023-03-15T02:57:43.935Z,0.00
2023-03-15T02:58:43.952Z,0.00
2023-03-15T02:59:43.972Z,0.00
2023-03-15T03:00:44.063Z,0.00
2023-03-15T03:01:44.006Z,0.00
2023-03-15T03:02:44.092Z,0.00
2023-03-15T03:03:44.043Z,0.00
2023-03-15T03:04:44.064Z,0.00
2023-03-15T03:05:44.078Z,0.00
2023-03-15T03:06:44.250Z,0.00
2023-03-15T03:07:44.129Z,0.00
2023-03-15T03:08:44.129Z,0.00
2023-03-15T03:09:44.151Z,0.00
2023-03-15T03:10:44.165Z,0.00
2023-03-15T03:11:44.183Z,0.00
2023-03-15T03:12:44.212Z,0.00
2023-03-15T03:13:44.234Z,0.00
2023-03-15T03:14:44.236Z,0.00
2023-03-15T03:15:45.326Z,0.00
2023-03-15T03:16:44.304Z,0.00
2023-03-15T03:17:44.288Z,0.00
2023-03-15T03:18:44.310Z,0.00
2023-03-15T03:19:44.322Z,0.00
2023-03-15T03:20:44.340Z,0.00
2023-03-15T03:21:44.400Z,0.00
2023-03-15T03:22:44.372Z,0.00
2023-03-15T03:23:44.386Z,0.00
2023-03-15T03:24:44.406Z,0.00
2023-03-15T03:25:44.429Z,0.00
2023-03-15T03:26:44.437Z,0.00
2023-03-15T03:27:44.454Z,0.00
2023-03-15T03:28:44.470Z,0.00
2023-03-15T03:29:44.489Z,0.00
2023-03-15T03:30:44.529Z,0.00
2023-03-15T03:31:44.592Z,0.00
2023-03-15T03:32:44.568Z,0.00
2023-03-15T03:33:44.559Z,0.00
2023-03-15T03:34:44.576Z,0.00
2023-03-15T03:35:44.637Z,0.00
2023-03-15T03:36:44.612Z,0.00
2023-03-15T03:37:44.630Z,0.00
2023-03-15T03:38:44.646Z,0.00
2023-03-15T03:39:44.661Z,0.00
2023-03-15T03:40:44.680Z,0.00
2023-03-15T03:41:44.697Z,0.00
2023-03-15T03:42:44.712Z,0.00
2023-03-15T03:43:44.738Z,0.00
2023-03-15T03:44:44.789Z,0.00
2023-03-15T03:45:44.789Z,0.00
2023-03-15T03:46:44.791Z,0.00
2023-03-15T03:47:44.802Z,0.00
2023-03-15T03:48:44.823Z,0.00
2023-03-15T03:49:44.842Z,0.00
2023-03-15T03:50:44.862Z,0.00
2023-03-15T03:51:44.871Z,0.00
2023-03-15T03:52:44.885Z,0.00
2023-03-15T03:53:44.905Z,0.00
2023-03-15T03:54:44.920Z,0.00
2023-03-15T03:55:44.939Z,0.00
2023-03-15T03:56:44.955Z,0.00
2023-03-15T03:57:44.978Z,0.00
2023-03-15T03:58:44.993Z,0.00
2023-03-15T03:59:45.008Z,0.00
2023-03-15T04:00:45.025Z,0.00
2023-03-15T04:01:45.043Z,0.00
2023-03-15T04:02:45.109Z,0.00
2023-03-15T04:03:45.081Z,0.00
2023-03-15T04:04:45.166Z,0.00
2023-03-15T04:05:45.119Z,0.00
2023-03-15T04:06:45.131Z,0.00
2023-03-15T04:07:45.145Z,0.00
2023-03-15T04:08:45.173Z,0.00
2023-03-15T04:09:45.181Z,0.00
2023-03-15T04:10:45.200Z,0.00
2023-03-15T04:11:45.222Z,0.00
2023-03-15T04:12:45.323Z,0.00
2023-03-15T04:13:45.253Z,0.00
2023-03-15T04:14:45.272Z,0.00
2023-03-15T04:15:45.320Z,0.00
2023-03-15T04:16:45.307Z,0.00
2023-03-15T04:17:45.324Z,0.00
2023-03-15T04:18:45.336Z,0.00
2023-03-15T04:19:45.356Z,0.00
2023-03-15T04:20:45.373Z,0.00
2023-03-15T04:21:45.397Z,0.00
2023-03-15T04:22:45.409Z,0.00
2023-03-15T04:23:45.433Z,0.00
2023-03-15T04:24:45.445Z,0.00
2023-03-15T04:25:45.462Z,0.00
2023-03-15T04:26:45.488Z,0.00
2023-03-15T04:27:45.500Z,0.00
2023-03-15T04:28:45.532Z,0.00
2023-03-15T04:29:45.534Z,0.00
2023-03-15T04:30:45.560Z,0.00
2023-03-15T04:31:45.595Z,0.00
2023-03-15T04:32:45.615Z,0.00
2023-03-15T04:33:45.608Z,0.00
2023-03-15T04:34:45.627Z,0.00
2023-03-15T04:35:45.784Z,0.00
2023-03-15T04:36:45.679Z,0.00
2023-03-15T04:37:45.705Z,0.00
2023-03-15T04:38:45.699Z,0.00
2023-03-15T04:39:45.726Z,0.00
2023-03-15T04:40:45.731Z,0.00
2023-03-15T04:41:45.748Z,0.00
2023-03-15T04:42:45.774Z,0.00
2023-03-15T04:43:45.783Z,0.00
2023-03-15T04:44:45.806Z,0.00
2023-03-15T04:45:45.819Z,0.00
2023-03-15T04:46:45.884Z,0.00
2023-03-15T04:47:45.855Z,0.00
2023-03-15T04:48:45.873Z,0.00
2023-03-15T04:49:45.892Z,0.00
2023-03-15T04:50:45.926Z,0.00
2023-03-15T04:51:45.926Z,0.00
2023-03-15T04:52:45.948Z,0.00
2023-03-15T04:53:45.962Z,0.00
2023-03-15T04:54:45.979Z,0.00
2023-03-15T04:55:45.994Z,0.00
2023-03-15T04:56:46.013Z,0.00
2023-03-15T04:57:46.046Z,0.00
2023-03-15T04:58:46.081Z,0.00
2023-03-15T04:59:46.069Z,0.00
2023-03-15T05:00:46.171Z,0.00
2023-03-15T05:01:46.202Z,0.00
2023-03-15T05:02:46.136Z,0.00
2023-03-15T05:03:46.136Z,0.00
2023-03-15T05:04:46.152Z,0.00
2023-03-15T05:05:46.172Z,0.00
2023-03-15T05:06:46.189Z,0.00
2023-03-15T05:07:46.207Z,0.00
2023-03-15T05:08:46.220Z,0.00
2023-03-15T05:09:46.269Z,0.00
2023-03-15T05:10:46.256Z,0.00
2023-03-15T05:11:46.292Z,0.00
2023-03-15T05:12:46.328Z,0.00
2023-03-15T05:13:46.317Z,0.00
2023-03-15T05:14:46.384Z,0.00
2023-03-15T05:15:46.350Z,0.00
2023-03-15T05:16:46.357Z,0.00
2023-03-15T05:17:46.410Z,0.00
2023-03-15T05:18:46.412Z,0.00
2023-03-15T05:19:46.418Z,0.00
2023-03-15T05:20:46.428Z,0.00
2023-03-15T05:21:46.462Z,0.00
2023-03-15T05:22:46.472Z,0.00
2023-03-15T05:23:46.548Z,0.00
2023-03-15T05:24:46.498Z,0.00
2023-03-15T05:25:46.513Z,0.00
2023-03-15T05:26:46.542Z,0.00
2023-03-15T05:27:46.555Z,0.00
2023-03-15T05:28:46.570Z,0.00
2023-03-15T05:29:46.596Z,0.00
2023-03-15T05:30:46.615Z,0.00
2023-03-15T05:31:46.713Z,0.00
2023-03-15T05:32:46.672Z,0.00
2023-03-15T05:33:46.661Z,0.00
2023-03-15T05:34:46.672Z,0.00
2023-03-15T05:35:46.719Z,0.00
2023-03-15T05:36:46.704Z,5.63
2023-03-15T05:37:46.719Z,5.63
2023-03-15T05:38:46.736Z,5.63
2023-03-15T05:39:46.804Z,5.63
2023-03-15T05:40:46.772Z,5.63
2023-03-15T05:41:46.785Z,5.63
2023-03-15T05:42:46.803Z,5.63
2023-03-15T05:43:46.822Z,5.63
2023-03-15T05:44:46.840Z,5.63
2023-03-15T05:45:46.933Z,5.63
2023-03-15T05:46:46.878Z,5.63
2023-03-15T05:47:46.890Z,5.63
2023-03-15T05:48:46.903Z,5.63
2023-03-15T05:49:46.924Z,11.25
2023-03-15T05:50:46.939Z,11.25
2023-03-15T05:51:46.966Z,11.25
2023-03-15T05:52:46.977Z,16.88
2023-03-15T05:53:46.990Z,16.88
2023-03-15T05:54:47.006Z,16.88
2023-03-15T05:55:47.072Z,16.88
2023-03-15T05:56:47.051Z,16.88
2023-03-15T05:57:47.057Z,16.88
2023-03-15T05:58:47.076Z,22.50
2023-03-15T05:59:47.098Z,22.50
2023-03-15T06:00:47.107Z,16.88
2023-03-15T06:01:47.128Z,16.88
2023-03-15T06:02:47.140Z,22.50
2023-03-15T06:03:47.240Z,22.50
2023-03-15T06:04:47.171Z,22.50
2023-03-15T06:05:47.224Z,22.50
2023-03-15T06:06:47.210Z,22.50
2023-03-15T06:07:47.226Z,22.50
2023-03-15T06:08:47.255Z,28.13
2023-03-15T06:09:47.272Z,28.13
2023-03-15T06:10:47.276Z,28.13
2023-03-15T06:11:47.293Z,22.50
2023-03-15T06:12:47.355Z,22.50
2023-03-15T06:13:47.331Z,28.13
2023-03-15T06:14:47.348Z,28.13
2023-03-15T06:15:47.362Z,28.13
2023-03-15T06:16:47.442Z,28.13
2023-03-15T06:17:47.399Z,33.75
2023-03-15T06:18:47.489Z,45.00
2023-03-15T06:19:47.446Z,39.38
2023-03-15T06:20:47.451Z,33.75
2023-03-15T06:21:47.469Z,33.75
2023-03-15T06:22:47.489Z,39.38
2023-03-15T06:23:47.503Z,45.00
2023-03-15T06:24:47.521Z,45.00
2023-03-15T06:25:47.549Z,56.25
2023-03-15T06:26:47.557Z,61.88
2023-03-15T06:27:47.578Z,67.50
2023-03-15T06:28:47.591Z,73.13
2023-03-15T06:29:47.608Z,61.88
2023-03-15T06:30:47.662Z,61.88
2023-03-15T06:31:47.643Z,73.13
2023-03-15T06:32:47.751Z,73.13
2023-03-15T06:33:47.680Z,78.75
2023-03-15T06:34:47.736Z,78.75
2023-03-15T06:35:47.781Z,90.00
2023-03-15T06:36:47.732Z,84.38
2023-03-15T06:37:47.755Z,78.75
2023-03-15T06:38:47.769Z,90.00
2023-03-15T06:39:47.784Z,118.13
2023-03-15T06:40:47.803Z,123.75
2023-03-15T06:41:47.831Z,129.38
2023-03-15T06:42:47.840Z,168.75
2023-03-15T06:43:47.857Z,174.38
2023-03-15T06:44:49.623Z,140.63
2023-03-15T06:45:47.926Z,146.25
2023-03-15T06:46:47.913Z,219.38
2023-03-15T06:47:47.931Z,219.38
2023-03-15T06:48:47.950Z,140.63
2023-03-15T06:49:47.967Z,140.63
2023-03-15T06:50:48.207Z,180.00
2023-03-15T06:51:48.006Z,247.50
2023-03-15T06:52:48.022Z,202.50
2023-03-15T06:53:48.042Z,180.00
2023-03-15T06:54:48.055Z,163.13
2023-03-15T06:55:48.089Z,157.50
2023-03-15T06:56:48.102Z,123.75
2023-03-15T06:57:48.127Z,101.25
2023-03-15T06:58:48.140Z,101.25
2023-03-15T06:59:48.169Z,106.88
2023-03-15T07:00:48.170Z,106.88
2023-03-15T07:01:48.234Z,129.38
2023-03-15T07:02:48.293Z,129.38
2023-03-15T07:03:48.233Z,151.88
2023-03-15T07:04:48.246Z,168.75
2023-03-15T07:05:48.269Z,185.63
2023-03-15T07:06:48.292Z,185.63
2023-03-15T07:07:48.304Z,168.75
2023-03-15T07:08:48.323Z,180.00
2023-03-15T07:09:48.341Z,191.25
2023-03-15T07:10:48.365Z,191.25
2023-03-15T07:11:48.380Z,213.75
2023-03-15T07:12:48.408Z,236.25
2023-03-15T07:13:48.439Z,219.38
2023-03-15T07:14:48.442Z,168.75
2023-03-15T07:15:48.463Z,157.50
2023-03-15T07:16:48.474Z,163.13
2023-03-15T07:17:48.515Z,157.50
2023-03-15T07:18:48.518Z,151.88
2023-03-15T07:19:56.193Z,163.13
2023-03-15T07:20:48.552Z,180.00
2023-03-15T07:21:48.575Z,185.63
2023-03-15T07:22:48.589Z,208.13
2023-03-15T07:23:48.613Z,213.75
2023-03-15T07:24:48.629Z,225.00
2023-03-15T07:25:54.996Z,225.00
2023-03-15T07:26:48.667Z,219.38
2023-03-15T07:27:48.686Z,241.88
2023-03-15T07:28:48.705Z,230.63
2023-03-15T07:29:48.773Z,208.13
2023-03-15T07:30:48.743Z,185.63
2023-03-15T07:31:48.766Z,157.50
2023-03-15T07:32:49.055Z,168.75
2023-03-15T07:33:48.805Z,185.63
2023-03-15T07:34:48.820Z,196.88
2023-03-15T07:35:48.852Z,213.75
2023-03-15T07:36:48.859Z,213.75
2023-03-15T07:37:48.878Z,196.88
2023-03-15T07:38:48.903Z,213.75
2023-03-15T07:39:48.913Z,241.88
2023-03-15T07:40:48.937Z,236.25
2023-03-15T07:41:48.953Z,241.88
2023-03-15T07:42:48.975Z,281.25
2023-03-15T07:43:49.009Z,236.25
2023-03-15T07:44:49.009Z,180.00
2023-03-15T07:45:49.029Z,185.63
2023-03-15T07:46:49.092Z,208.13
2023-03-15T07:47:49.073Z,225.00
2023-03-15T07:48:49.087Z,196.88
2023-03-15T07:49:49.109Z,236.25
2023-03-15T07:50:49.130Z,343.13
2023-03-15T07:51:49.144Z,315.00
2023-03-15T07:52:49.166Z,258.75
2023-03-15T07:53:49.185Z,230.63
2023-03-15T07:54:49.203Z,208.13
2023-03-15T07:55:49.241Z,163.13
2023-03-15T07:56:49.240Z,163.13
2023-03-15T07:57:50.722Z,146.25
2023-03-15T07:58:49.280Z,135.00
2023-03-15T07:59:49.294Z,129.38
2023-03-15T08:00:49.322Z,129.38
2023-03-15T08:01:49.373Z,135.00
2023-03-15T08:02:49.435Z,135.00
2023-03-15T08:03:49.374Z,140.63
2023-03-15T08:04:49.399Z,151.88
2023-03-15T08:05:49.417Z,168.75
2023-03-15T08:06:49.435Z,180.00
2023-03-15T08:07:49.452Z,168.75
2023-03-15T08:08:49.475Z,208.13
2023-03-15T08:09:49.491Z,264.38
2023-03-15T08:10:49.512Z,286.88
2023-03-15T08:11:49.561Z,331.88
2023-03-15T08:12:49.556Z,388.13
2023-03-15T08:13:49.576Z,382.50
2023-03-15T08:14:49.588Z,326.25
2023-03-15T08:15:49.609Z,298.13
2023-03-15T08:16:49.687Z,281.25
2023-03-15T08:17:49.647Z,247.50
2023-03-15T08:18:49.666Z,213.75
2023-03-15T08:19:49.684Z,174.38
2023-03-15T08:20:49.704Z,157.50
2023-03-15T08:21:49.728Z,168.75
2023-03-15T08:22:49.747Z,191.25
2023-03-15T08:23:49.760Z,225.00
2023-03-15T08:24:49.793Z,309.38
2023-03-15T08:25:49.819Z,365.63
2023-03-15T08:26:49.827Z,320.63
2023-03-15T08:27:49.960Z,320.63
2023-03-15T08:28:49.868Z,331.88
2023-03-15T08:29:51.127Z,337.50
2023-03-15T08:30:49.905Z,292.50
2023-03-15T08:31:50.021Z,253.13
2023-03-15T08:32:49.956Z,241.88
2023-03-15T08:33:49.965Z,236.25
2023-03-15T08:34:49.981Z,258.75
2023-03-15T08:35:50.091Z,331.88
2023-03-15T08:36:50.062Z,331.88
2023-03-15T08:37:50.115Z,360.00
2023-03-15T08:38:50.060Z,371.25
2023-03-15T08:39:50.075Z,365.63
2023-03-15T08:40:50.097Z,388.13
2023-03-15T08:41:50.120Z,298.13
2023-03-15T08:42:50.138Z,196.88
2023-03-15T08:43:50.160Z,163.13
2023-03-15T08:44:50.178Z,151.88
2023-03-15T08:46:01.165Z,180.00
2023-03-15T08:46:50.279Z,264.38
2023-03-15T08:47:50.240Z,292.50
2023-03-15T08:48:50.266Z,320.63
2023-03-15T08:49:50.275Z,348.75
2023-03-15T08:50:50.296Z,337.50
2023-03-15T08:51:50.316Z,303.75
2023-03-15T08:52:50.334Z,253.13
2023-03-15T08:53:50.353Z,225.00
2023-03-15T08:54:50.373Z,253.13
2023-03-15T08:55:50.397Z,309.38
2023-03-15T08:56:50.412Z,320.63
2023-03-15T08:57:50.433Z,309.38
2023-03-15T08:58:50.455Z,298.13
2023-03-15T08:59:51.473Z,320.63
2023-03-15T09:00:50.497Z,303.75
2023-03-15T09:01:50.542Z,247.50
2023-03-15T09:02:50.531Z,196.88
2023-03-15T09:03:50.550Z,174.38
2023-03-15T09:04:52.457Z,157.50
2023-03-15T09:05:50.585Z,157.50
2023-03-15T09:06:50.611Z,151.88
2023-03-15T09:07:50.640Z,151.88
2023-03-15T09:08:50.652Z,157.50
2023-03-15T09:09:50.687Z,157.50
2023-03-15T09:10:50.689Z,168.75
2023-03-15T09:11:50.721Z,208.13
2023-03-15T09:12:50.728Z,213.75
2023-03-15T09:13:50.750Z,196.88
2023-03-15T09:14:50.767Z,185.63
2023-03-15T09:15:50.786Z,191.25
2023-03-15T09:16:50.922Z,185.63
2023-03-15T09:17:50.860Z,180.00
2023-03-15T09:18:50.851Z,185.63
2023-03-15T09:19:50.873Z,196.88
2023-03-15T09:20:50.887Z,185.63
2023-03-15T09:21:50.907Z,185.63
2023-03-15T09:22:50.929Z,185.63
2023-03-15T09:23:50.952Z,213.75
2023-03-15T09:24:51.898Z,247.50
2023-03-15T09:25:50.988Z,309.38
2023-03-15T09:26:51.014Z,360.00
2023-03-15T09:27:51.025Z,354.38
2023-03-15T09:28:51.048Z,315.00
2023-03-15T09:29:51.067Z,241.88
2023-03-15T09:30:51.117Z,185.63
2023-03-15T09:31:51.108Z,174.38
2023-03-15T09:32:51.197Z,168.75
2023-03-15T09:33:51.147Z,185.63
2023-03-15T09:34:51.170Z,208.13
2023-03-15T09:35:51.208Z,225.00
2023-03-15T09:36:51.213Z,258.75
2023-03-15T09:37:51.248Z,286.88
2023-03-15T09:38:51.258Z,292.50
2023-03-15T09:39:51.276Z,286.88
2023-03-15T09:40:51.297Z,286.88
2023-03-15T09:41:51.309Z,298.13
2023-03-15T09:42:51.339Z,298.13
2023-03-15T09:43:51.355Z,286.88
2023-03-15T09:44:51.370Z,258.75
2023-03-15T09:45:51.396Z,219.38
2023-03-15T09:46:51.511Z,185.63
2023-03-15T09:47:51.431Z,168.75
2023-03-15T09:48:51.460Z,185.63
2023-03-15T09:49:51.479Z,208.13
2023-03-15T09:50:51.532Z,236.25
2023-03-15T09:51:51.523Z,258.75
2023-03-15T09:52:51.540Z,241.88
2023-03-15T09:53:51.558Z,208.13
2023-03-15T09:54:51.574Z,185.63
2023-03-15T09:55:51.646Z,191.25
2023-03-15T09:56:51.624Z,191.25
2023-03-15T09:57:51.644Z,174.38
2023-03-15T09:58:51.658Z,174.38
2023-03-15T09:59:51.681Z,174.38
2023-03-15T10:00:51.699Z,196.88
2023-03-15T10:01:51.753Z,236.25
2023-03-15T10:02:51.740Z,292.50
2023-03-15T10:03:51.801Z,337.50
2023-03-15T10:04:51.781Z,343.13
2023-03-15T10:05:51.848Z,309.38
2023-03-15T10:06:51.832Z,275.63
2023-03-15T10:07:51.843Z,247.50
2023-03-15T10:08:51.863Z,241.88
2023-03-15T10:09:51.887Z,236.25
2023-03-15T10:10:51.905Z,213.75
2023-03-15T10:11:51.926Z,208.13
2023-03-15T10:12:51.951Z,196.88
2023-03-15T10:13:51.979Z,208.13
2023-03-15T10:14:51.991Z,247.50
2023-03-15T10:15:52.069Z,264.38
2023-03-15T10:16:52.058Z,264.38
2023-03-15T10:17:52.056Z,264.38
2023-03-15T10:18:52.074Z,253.13
2023-03-15T10:19:52.106Z,236.25
2023-03-15T10:20:52.116Z,236.25
2023-03-15T10:21:52.141Z,213.75
2023-03-15T10:22:52.159Z,202.50
2023-03-15T10:23:52.180Z,208.13
2023-03-15T10:24:52.207Z,225.00
2023-03-15T10:25:52.224Z,219.38
2023-03-15T10:26:52.342Z,202.50
2023-03-15T10:27:52.266Z,196.88
2023-03-15T10:28:52.284Z,174.38
2023-03-15T10:29:52.323Z,168.75
2023-03-15T10:30:52.386Z,180.00
2023-03-15T10:31:52.418Z,225.00
2023-03-15T10:32:52.438Z,247.50
2023-03-15T10:33:52.394Z,258.75
2023-03-15T10:34:52.411Z,241.88
2023-03-15T10:35:58.387Z,208.13
2023-03-15T10:36:52.455Z,191.25
2023-03-15T10:37:52.472Z,191.25
2023-03-15T10:38:52.494Z,180.00
2023-03-15T10:39:52.509Z,174.38
2023-03-15T10:40:52.541Z,168.75
2023-03-15T10:41:52.570Z,185.63
2023-03-15T10:42:52.575Z,196.88
2023-03-15T10:43:52.608Z,191.25
2023-03-15T10:44:52.618Z,191.25
2023-03-15T10:45:53.253Z,202.50
2023-03-15T10:46:52.674Z,213.75
2023-03-15T10:48:00.382Z,225.00
2023-03-15T10:48:52.706Z,225.00
2023-03-15T10:49:52.720Z,213.75
2023-03-15T10:50:52.742Z,208.13
2023-03-15T10:51:52.760Z,196.88
2023-03-15T10:52:52.785Z,180.00
2023-03-15T10:53:52.803Z,180.00
2023-03-15T10:54:58.632Z,185.63
2023-03-15T10:55:52.844Z,196.88
2023-03-15T10:56:52.867Z,196.88
2023-03-15T10:57:52.885Z,191.25
2023-03-15T10:59:09.513Z,202.50
2023-03-15T10:59:52.941Z,202.50
2023-03-15T11:00:52.970Z,202.50
2023-03-15T11:01:53.076Z,202.50
2023-03-15T11:02:53.018Z,208.13
2023-03-15T11:03:53.011Z,219.38
2023-03-15T11:04:53.033Z,236.25
2023-03-15T11:05:53.057Z,247.50
2023-03-15T11:06:53.079Z,247.50
2023-03-15T11:07:53.096Z,264.38
2023-03-15T11:08:53.119Z,309.38
2023-03-15T11:09:53.141Z,354.38
2023-03-15T11:10:53.162Z,360.00
2023-03-15T11:11:53.179Z,376.88
2023-03-15T11:12:53.203Z,371.25
2023-03-15T11:13:53.225Z,371.25
2023-03-15T11:14:53.247Z,348.75
2023-03-15T11:15:53.291Z,326.25
2023-03-15T11:16:53.295Z,264.38
2023-03-15T11:17:53.310Z,213.75
2023-03-15T11:18:53.337Z,185.63
2023-03-15T11:19:53.354Z,191.25
2023-03-15T11:20:53.376Z,213.75
2023-03-15T11:21:53.396Z,230.63
2023-03-15T11:22:53.422Z,247.50
2023-03-15T11:23:53.443Z,253.13
2023-03-15T11:24:53.487Z,247.50
2023-03-15T11:25:53.490Z,247.50
2023-03-15T11:26:53.507Z,275.63
2023-03-15T11:27:53.541Z,292.50
2023-03-15T11:28:53.553Z,286.88
2023-03-15T11:29:53.569Z,292.50
2023-03-15T11:30:53.606Z,281.25
2023-03-15T11:31:53.741Z,253.13
2023-03-15T11:32:53.701Z,230.63
2023-03-15T11:33:53.655Z,208.13
2023-03-15T11:34:53.689Z,196.88
2023-03-15T11:35:53.736Z,180.00
2023-03-15T11:37:07.238Z,168.75
2023-03-15T11:37:55.197Z,163.13
2023-03-15T11:38:53.767Z,151.88
2023-03-15T11:40:01.740Z,180.00
2023-03-15T11:40:53.812Z,185.63
2023-03-15T11:41:53.841Z,174.38
2023-03-15T11:42:53.856Z,174.38
2023-03-15T11:43:53.879Z,174.38
2023-03-15T11:44:53.898Z,174.38
2023-03-15T11:45:53.975Z,168.75
2023-03-15T11:46:53.948Z,163.13
2023-03-15T11:47:53.987Z,168.75
2023-03-15T11:48:53.985Z,168.75
2023-03-15T11:49:54.010Z,168.75
2023-03-15T11:50:54.032Z,174.38
2023-03-15T11:51:54.057Z,185.63
2023-03-15T11:52:54.070Z,196.88
2023-03-15T11:53:54.093Z,180.00
2023-03-15T11:54:54.116Z,163.13
2023-03-15T11:55:54.140Z,140.63
2023-03-15T11:56:54.159Z,151.88
2023-03-15T11:57:54.187Z,135.00
2023-03-15T11:58:54.203Z,140.63
2023-03-15T11:59:54.241Z,163.13
2023-03-15T12:00:54.244Z,168.75
2023-03-15T12:01:54.343Z,180.00
2023-03-15T12:02:54.357Z,208.13
2023-03-15T12:03:54.314Z,219.38
2023-03-15T12:04:54.328Z,213.75
2023-03-15T12:05:54.352Z,247.50
2023-03-15T12:06:54.372Z,281.25
2023-03-15T12:07:54.392Z,348.75
2023-03-15T12:08:54.417Z,388.13
2023-03-15T12:09:54.437Z,421.88
2023-03-15T12:10:54.471Z,405.00
2023-03-15T12:11:54.480Z,360.00
2023-03-15T12:12:54.503Z,337.50
2023-03-15T12:13:54.526Z,337.50
2023-03-15T12:14:54.550Z,360.00
2023-03-15T12:15:54.566Z,393.75
2023-03-15T12:16:54.728Z,337.50
2023-03-15T12:17:54.624Z,281.25
2023-03-15T12:18:54.634Z,258.75
2023-03-15T12:19:54.667Z,230.63
2023-03-15T12:20:54.678Z,219.38
2023-03-15T12:21:54.701Z,230.63
2023-03-15T12:22:56.762Z,264.38
2023-03-15T12:23:54.750Z,292.50
2023-03-15T12:24:54.766Z,337.50
2023-03-15T12:25:55.594Z,354.38
2023-03-15T12:26:54.809Z,315.00
2023-03-15T12:27:54.833Z,264.38
2023-03-15T12:28:54.851Z,219.38
2023-03-15T12:29:54.871Z,219.38
2023-03-15T12:30:54.946Z,213.75
2023-03-15T12:31:54.915Z,213.75
2023-03-15T12:32:54.982Z,219.38
2023-03-15T12:33:54.959Z,236.25
2023-03-15T12:34:54.998Z,258.75
2023-03-15T12:35:55.066Z,264.38
2023-03-15T12:36:55.024Z,315.00
2023-03-15T12:37:55.044Z,382.50
2023-03-15T12:38:55.065Z,438.75
2023-03-15T12:39:55.087Z,438.75
2023-03-15T12:40:55.125Z,450.00
2023-03-15T12:41:55.130Z,421.88
2023-03-15T12:42:55.157Z,382.50
2023-03-15T12:43:55.172Z,354.38
2023-03-15T12:44:55.194Z,354.38
2023-03-15T12:45:55.275Z,382.50
2023-03-15T12:46:55.239Z,405.00
2023-03-15T12:47:55.261Z,416.25
2023-03-15T12:48:55.282Z,410.63
2023-03-15T12:49:55.309Z,421.88
2023-03-15T12:50:55.322Z,405.00
2023-03-15T12:51:57.377Z,360.00